sensor_id;sensor_type;location;lat;lon;timestamp;temperature;humidity
56256;DHT22;57229;51.432;-2.598;2024-03-22T00:01:48;10.10;99.90
56256;DHT22;57229;51.432;-2.598;2024-03-22T00:04:15;10.10;99.90
56256;DHT22;57229;51.432;-2.598;2024-03-22T00:06:42;10.10;99.90
56256;DHT22;57229;51.432;-2.598;2024-03-22T00:09:09;10.10;99.90
56256;DHT22;57229;51.432;-2.598;2024-03-22T00:11:35;10.10;99.90
56256;DHT22;57229;51.432;-2.598;2024-03-22T00:14:02;10.10;99.90
56256;DHT22;57229;51.432;-2.598;2024-03-22T00:16:28;10.10;99.90
56256;DHT22;57229;51.432;-2.598;2024-03-22T00:18:53;10.10;99.90
56256;DHT22;57229;51.432;-2.598;2024-03-22T00:21:19;10.10;99.90
56256;DHT22;57229;51.432;-2.598;2024-03-22T00:23:48;10.10;99.90
56256;DHT22;57229;51.432;-2.598;2024-03-22T00:26:13;10.10;99.90
56256;DHT22;57229;51.432;-2.598;2024-03-22T00:28:39;10.10;99.90
56256;DHT22;57229;51.432;-2.598;2024-03-22T00:31:05;10.20;99.90
56256;DHT22;57229;51.432;-2.598;2024-03-22T00:33:30;10.10;99.90
56256;DHT22;57229;51.432;-2.598;2024-03-22T00:35:57;10.10;99.90
56256;DHT22;57229;51.432;-2.598;2024-03-22T00:38:22;10.20;99.90
56256;DHT22;57229;51.432;-2.598;2024-03-22T00:40:48;10.20;99.90
56256;DHT22;57229;51.432;-2.598;2024-03-22T00:43:14;10.20;99.90
56256;DHT22;57229;51.432;-2.598;2024-03-22T00:45:39;10.20;99.90
56256;DHT22;57229;51.432;-2.598;2024-03-22T00:48:05;10.20;99.90
56256;DHT22;57229;51.432;-2.598;2024-03-22T00:50:31;10.10;99.90
56256;DHT22;57229;51.432;-2.598;2024-03-22T00:52:56;10.70;99.90
56256;DHT22;57229;51.432;-2.598;2024-03-22T00:55:23;10.20;99.90
56256;DHT22;57229;51.432;-2.598;2024-03-22T00:57:48;10.20;99.90
56256;DHT22;57229;51.432;-2.598;2024-03-22T01:00:14;10.30;99.90
56256;DHT22;57229;51.432;-2.598;2024-03-22T01:02:41;10.20;99.90
56256;DHT22;57229;51.432;-2.598;2024-03-22T01:05:07;10.50;99.90
56256;DHT22;57229;51.432;-2.598;2024-03-22T01:07:32;10.10;99.90
56256;DHT22;57229;51.432;-2.598;2024-03-22T01:09:58;10.10;99.90
56256;DHT22;57229;51.432;-2.598;2024-03-22T01:12:23;10.10;99.90
56256;DHT22;57229;51.432;-2.598;2024-03-22T01:14:49;10.10;99.90
56256;DHT22;57229;51.432;-2.598;2024-03-22T01:17:15;10.10;99.90
56256;DHT22;57229;51.432;-2.598;2024-03-22T01:19:40;10.10;99.90
56256;DHT22;57229;51.432;-2.598;2024-03-22T01:22:06;10.10;99.90
56256;DHT22;57229;51.432;-2.598;2024-03-22T01:24:32;10.10;99.90
56256;DHT22;57229;51.432;-2.598;2024-03-22T01:26:57;10.10;99.90
56256;DHT22;57229;51.432;-2.598;2024-03-22T01:29:23;10.00;99.90
56256;DHT22;57229;51.432;-2.598;2024-03-22T01:31:48;10.00;99.90
56256;DHT22;57229;51.432;-2.598;2024-03-22T01:34:14;10.30;99.90
56256;DHT22;57229;51.432;-2.598;2024-03-22T01:36:40;10.40;99.90
56256;DHT22;57229;51.432;-2.598;2024-03-22T01:39:06;10.00;99.90
56256;DHT22;57229;51.432;-2.598;2024-03-22T01:41:31;10.30;99.90
56256;DHT22;57229;51.432;-2.598;2024-03-22T01:43:58;10.00;99.90
56256;DHT22;57229;51.432;-2.598;2024-03-22T01:46:23;10.30;99.90
56256;DHT22;57229;51.432;-2.598;2024-03-22T01:48:49;9.90;99.90
56256;DHT22;57229;51.432;-2.598;2024-03-22T01:51:16;9.90;99.90
56256;DHT22;57229;51.432;-2.598;2024-03-22T01:53:42;9.90;99.90
56256;DHT22;57229;51.432;-2.598;2024-03-22T01:56:07;10.20;99.90
56256;DHT22;57229;51.432;-2.598;2024-03-22T01:58:33;10.50;99.90
56256;DHT22;57229;51.432;-2.598;2024-03-22T02:00:59;9.70;99.90
56256;DHT22;57229;51.432;-2.598;2024-03-22T02:03:25;10.80;99.90
56256;DHT22;57229;51.432;-2.598;2024-03-22T02:05:50;9.60;99.90
56256;DHT22;57229;51.432;-2.598;2024-03-22T02:08:16;9.60;99.90
56256;DHT22;57229;51.432;-2.598;2024-03-22T02:10:42;9.50;99.90
56256;DHT22;57229;51.432;-2.598;2024-03-22T02:13:08;9.60;99.90
56256;DHT22;57229;51.432;-2.598;2024-03-22T02:15:33;9.40;99.90
56256;DHT22;57229;51.432;-2.598;2024-03-22T02:17:59;9.40;99.90
56256;DHT22;57229;51.432;-2.598;2024-03-22T02:20:24;9.40;99.90
56256;DHT22;57229;51.432;-2.598;2024-03-22T02:22:50;9.30;99.90
56256;DHT22;57229;51.432;-2.598;2024-03-22T02:25:16;10.20;99.90
56256;DHT22;57229;51.432;-2.598;2024-03-22T02:27:42;9.30;99.90
56256;DHT22;57229;51.432;-2.598;2024-03-22T02:30:08;9.30;99.90
56256;DHT22;57229;51.432;-2.598;2024-03-22T02:32:34;9.30;99.90
56256;DHT22;57229;51.432;-2.598;2024-03-22T02:35:00;9.60;99.90
56256;DHT22;57229;51.432;-2.598;2024-03-22T02:37:25;9.70;99.90
56256;DHT22;57229;51.432;-2.598;2024-03-22T02:39:51;9.30;99.90
56256;DHT22;57229;51.432;-2.598;2024-03-22T02:42:16;9.40;99.90
56256;DHT22;57229;51.432;-2.598;2024-03-22T02:44:42;10.20;99.90
56256;DHT22;57229;51.432;-2.598;2024-03-22T02:47:10;9.40;99.90
56256;DHT22;57229;51.432;-2.598;2024-03-22T02:49:38;9.50;99.90
56256;DHT22;57229;51.432;-2.598;2024-03-22T02:52:04;9.50;99.90
56256;DHT22;57229;51.432;-2.598;2024-03-22T02:54:29;9.50;99.90
56256;DHT22;57229;51.432;-2.598;2024-03-22T02:56:55;9.50;99.90
56256;DHT22;57229;51.432;-2.598;2024-03-22T02:59:21;9.60;99.90
56256;DHT22;57229;51.432;-2.598;2024-03-22T03:01:46;9.60;99.90
56256;DHT22;57229;51.432;-2.598;2024-03-22T03:04:12;9.60;99.90
56256;DHT22;57229;51.432;-2.598;2024-03-22T03:06:37;9.60;99.90
56256;DHT22;57229;51.432;-2.598;2024-03-22T03:09:03;9.70;99.90
56256;DHT22;57229;51.432;-2.598;2024-03-22T03:11:33;10.60;99.90
56256;DHT22;57229;51.432;-2.598;2024-03-22T03:13:59;9.70;99.90
56256;DHT22;57229;51.432;-2.598;2024-03-22T03:16:25;9.70;99.90
56256;DHT22;57229;51.432;-2.598;2024-03-22T03:18:50;9.80;99.90
56256;DHT22;57229;51.432;-2.598;2024-03-22T03:21:16;9.80;99.90
56256;DHT22;57229;51.432;-2.598;2024-03-22T03:23:41;9.80;99.90
56256;DHT22;57229;51.432;-2.598;2024-03-22T03:26:07;10.40;99.90
56256;DHT22;57229;51.432;-2.598;2024-03-22T03:28:32;10.20;99.90
56256;DHT22;57229;51.432;-2.598;2024-03-22T03:30:58;10.90;99.90
56256;DHT22;57229;51.432;-2.598;2024-03-22T03:33:23;9.90;99.90
56256;DHT22;57229;51.432;-2.598;2024-03-22T03:35:49;9.90;99.90
56256;DHT22;57229;51.432;-2.598;2024-03-22T03:38:15;10.00;99.90
56256;DHT22;57229;51.432;-2.598;2024-03-22T03:40:40;9.90;99.90
56256;DHT22;57229;51.432;-2.598;2024-03-22T03:43:06;9.90;99.90
56256;DHT22;57229;51.432;-2.598;2024-03-22T03:45:31;9.90;99.90
56256;DHT22;57229;51.432;-2.598;2024-03-22T03:47:57;9.90;99.90
56256;DHT22;57229;51.432;-2.598;2024-03-22T03:50:23;9.90;99.90
56256;DHT22;57229;51.432;-2.598;2024-03-22T03:52:48;9.90;99.90
56256;DHT22;57229;51.432;-2.598;2024-03-22T03:55:14;9.90;99.90
56256;DHT22;57229;51.432;-2.598;2024-03-22T03:57:40;10.00;99.90
56256;DHT22;57229;51.432;-2.598;2024-03-22T04:00:06;9.90;99.90
56256;DHT22;57229;51.432;-2.598;2024-03-22T04:02:31;10.00;99.90
56256;DHT22;57229;51.432;-2.598;2024-03-22T04:04:57;9.90;99.90
56256;DHT22;57229;51.432;-2.598;2024-03-22T04:07:22;10.10;99.90
56256;DHT22;57229;51.432;-2.598;2024-03-22T04:09:48;10.00;99.90
56256;DHT22;57229;51.432;-2.598;2024-03-22T04:12:14;10.00;99.90
56256;DHT22;57229;51.432;-2.598;2024-03-22T04:14:39;10.00;99.90
56256;DHT22;57229;51.432;-2.598;2024-03-22T04:17:05;10.00;99.90
56256;DHT22;57229;51.432;-2.598;2024-03-22T04:19:30;10.00;99.90
56256;DHT22;57229;51.432;-2.598;2024-03-22T04:21:56;10.00;99.90
56256;DHT22;57229;51.432;-2.598;2024-03-22T04:24:22;9.90;99.90
56256;DHT22;57229;51.432;-2.598;2024-03-22T04:26:48;10.00;99.90
56256;DHT22;57229;51.432;-2.598;2024-03-22T04:29:13;10.00;99.90
56256;DHT22;57229;51.432;-2.598;2024-03-22T04:31:39;10.00;99.90
56256;DHT22;57229;51.432;-2.598;2024-03-22T04:34:04;10.00;99.90
56256;DHT22;57229;51.432;-2.598;2024-03-22T04:36:33;10.00;99.90
56256;DHT22;57229;51.432;-2.598;2024-03-22T04:38:59;10.10;99.90
56256;DHT22;57229;51.432;-2.598;2024-03-22T04:41:25;10.10;99.90
56256;DHT22;57229;51.432;-2.598;2024-03-22T04:43:50;10.10;99.90
56256;DHT22;57229;51.432;-2.598;2024-03-22T04:46:16;10.90;99.90
56256;DHT22;57229;51.432;-2.598;2024-03-22T04:48:41;10.10;99.90
56256;DHT22;57229;51.432;-2.598;2024-03-22T04:51:07;10.10;99.90
56256;DHT22;57229;51.432;-2.598;2024-03-22T04:53:32;10.10;99.90
56256;DHT22;57229;51.432;-2.598;2024-03-22T04:55:58;10.10;99.90
56256;DHT22;57229;51.432;-2.598;2024-03-22T04:58:24;10.10;99.90
56256;DHT22;57229;51.432;-2.598;2024-03-22T05:00:55;10.10;99.90
56256;DHT22;57229;51.432;-2.598;2024-03-22T05:03:21;10.10;99.90
56256;DHT22;57229;51.432;-2.598;2024-03-22T05:05:46;10.10;99.90
56256;DHT22;57229;51.432;-2.598;2024-03-22T05:08:12;10.10;99.90
56256;DHT22;57229;51.432;-2.598;2024-03-22T05:10:37;10.10;99.90
56256;DHT22;57229;51.432;-2.598;2024-03-22T05:13:03;10.20;99.90
56256;DHT22;57229;51.432;-2.598;2024-03-22T05:15:29;10.10;99.90
56256;DHT22;57229;51.432;-2.598;2024-03-22T05:17:57;11.10;99.90
56256;DHT22;57229;51.432;-2.598;2024-03-22T05:20:23;10.20;99.90
56256;DHT22;57229;51.432;-2.598;2024-03-22T05:22:48;10.20;99.90
56256;DHT22;57229;51.432;-2.598;2024-03-22T05:25:14;10.20;99.90
56256;DHT22;57229;51.432;-2.598;2024-03-22T05:27:43;10.20;99.90
56256;DHT22;57229;51.432;-2.598;2024-03-22T05:30:09;10.30;99.90
56256;DHT22;57229;51.432;-2.598;2024-03-22T05:32:35;10.30;99.90
56256;DHT22;57229;51.432;-2.598;2024-03-22T05:35:01;11.20;99.90
56256;DHT22;57229;51.432;-2.598;2024-03-22T05:37:27;10.30;99.90
56256;DHT22;57229;51.432;-2.598;2024-03-22T05:39:52;10.40;99.90
56256;DHT22;57229;51.432;-2.598;2024-03-22T05:42:18;10.30;99.90
56256;DHT22;57229;51.432;-2.598;2024-03-22T05:44:44;10.80;99.90
56256;DHT22;57229;51.432;-2.598;2024-03-22T05:47:10;10.40;99.90
56256;DHT22;57229;51.432;-2.598;2024-03-22T05:49:36;10.40;99.90
56256;DHT22;57229;51.432;-2.598;2024-03-22T05:52:01;10.40;99.90
56256;DHT22;57229;51.432;-2.598;2024-03-22T05:54:27;10.40;99.90
56256;DHT22;57229;51.432;-2.598;2024-03-22T05:56:53;10.40;99.90
56256;DHT22;57229;51.432;-2.598;2024-03-22T05:59:18;10.40;99.90
56256;DHT22;57229;51.432;-2.598;2024-03-22T06:01:44;10.40;99.90
56256;DHT22;57229;51.432;-2.598;2024-03-22T06:04:09;10.90;99.90
56256;DHT22;57229;51.432;-2.598;2024-03-22T06:06:35;10.40;99.90
56256;DHT22;57229;51.432;-2.598;2024-03-22T06:09:02;10.40;99.90
56256;DHT22;57229;51.432;-2.598;2024-03-22T06:11:34;10.40;99.90
56256;DHT22;57229;51.432;-2.598;2024-03-22T06:14:00;10.40;99.90
56256;DHT22;57229;51.432;-2.598;2024-03-22T06:16:25;10.40;99.90
56256;DHT22;57229;51.432;-2.598;2024-03-22T06:18:51;10.40;99.90
56256;DHT22;57229;51.432;-2.598;2024-03-22T06:21:17;10.40;99.90
56256;DHT22;57229;51.432;-2.598;2024-03-22T06:23:49;10.40;99.90
56256;DHT22;57229;51.432;-2.598;2024-03-22T06:26:15;10.40;99.90
56256;DHT22;57229;51.432;-2.598;2024-03-22T06:28:41;11.40;99.90
56256;DHT22;57229;51.432;-2.598;2024-03-22T06:31:06;10.80;99.90
56256;DHT22;57229;51.432;-2.598;2024-03-22T06:33:32;10.50;99.90
56256;DHT22;57229;51.432;-2.598;2024-03-22T06:35:57;10.30;99.90
56256;DHT22;57229;51.432;-2.598;2024-03-22T06:38:23;11.20;99.90
56256;DHT22;57229;51.432;-2.598;2024-03-22T06:40:49;10.80;99.90
56256;DHT22;57229;51.432;-2.598;2024-03-22T06:43:14;10.30;99.90
56256;DHT22;57229;51.432;-2.598;2024-03-22T06:45:40;10.80;99.90
56256;DHT22;57229;51.432;-2.598;2024-03-22T06:48:06;11.90;99.90
56256;DHT22;57229;51.432;-2.598;2024-03-22T06:50:31;10.30;99.90
56256;DHT22;57229;51.432;-2.598;2024-03-22T06:52:57;10.30;99.90
56256;DHT22;57229;51.432;-2.598;2024-03-22T06:55:22;10.40;99.90
56256;DHT22;57229;51.432;-2.598;2024-03-22T06:57:49;10.30;99.90
56256;DHT22;57229;51.432;-2.598;2024-03-22T07:00:16;10.30;99.90
56256;DHT22;57229;51.432;-2.598;2024-03-22T07:02:42;10.30;99.90
56256;DHT22;57229;51.432;-2.598;2024-03-22T07:05:08;10.40;99.90
56256;DHT22;57229;51.432;-2.598;2024-03-22T07:07:35;10.30;99.90
56256;DHT22;57229;51.432;-2.598;2024-03-22T07:10:01;10.30;99.90
56256;DHT22;57229;51.432;-2.598;2024-03-22T07:12:27;10.40;99.90
56256;DHT22;57229;51.432;-2.598;2024-03-22T07:14:52;10.40;99.90
56256;DHT22;57229;51.432;-2.598;2024-03-22T07:17:18;10.40;99.90
56256;DHT22;57229;51.432;-2.598;2024-03-22T07:19:49;10.50;99.90
56256;DHT22;57229;51.432;-2.598;2024-03-22T07:22:16;10.50;99.90
56256;DHT22;57229;51.432;-2.598;2024-03-22T07:24:42;10.50;99.90
56256;DHT22;57229;51.432;-2.598;2024-03-22T07:27:07;10.60;99.90
56256;DHT22;57229;51.432;-2.598;2024-03-22T07:29:33;10.50;99.90
56256;DHT22;57229;51.432;-2.598;2024-03-22T07:31:59;10.50;99.90
56256;DHT22;57229;51.432;-2.598;2024-03-22T07:34:24;11.30;99.90
56256;DHT22;57229;51.432;-2.598;2024-03-22T07:36:50;10.60;99.90
56256;DHT22;57229;51.432;-2.598;2024-03-22T07:39:15;10.60;99.90
56256;DHT22;57229;51.432;-2.598;2024-03-22T07:41:41;11.10;99.90
56256;DHT22;57229;51.432;-2.598;2024-03-22T07:44:07;10.90;99.90
56256;DHT22;57229;51.432;-2.598;2024-03-22T07:46:33;10.70;99.90
56256;DHT22;57229;51.432;-2.598;2024-03-22T07:48:58;10.70;99.90
56256;DHT22;57229;51.432;-2.598;2024-03-22T07:51:25;12.00;99.90
56256;DHT22;57229;51.432;-2.598;2024-03-22T07:53:50;10.60;99.90
56256;DHT22;57229;51.432;-2.598;2024-03-22T07:56:17;10.60;99.90
56256;DHT22;57229;51.432;-2.598;2024-03-22T07:58:43;10.60;99.90
56256;DHT22;57229;51.432;-2.598;2024-03-22T08:01:08;10.80;99.90
56256;DHT22;57229;51.432;-2.598;2024-03-22T08:03:34;10.60;99.90
56256;DHT22;57229;51.432;-2.598;2024-03-22T08:06:00;11.40;99.90
56256;DHT22;57229;51.432;-2.598;2024-03-22T08:08:25;10.60;99.90
56256;DHT22;57229;51.432;-2.598;2024-03-22T08:10:51;10.60;99.90
56256;DHT22;57229;51.432;-2.598;2024-03-22T08:13:17;11.80;99.90
56256;DHT22;57229;51.432;-2.598;2024-03-22T08:15:42;10.50;99.90
56256;DHT22;57229;51.432;-2.598;2024-03-22T08:18:11;10.40;99.90
56256;DHT22;57229;51.432;-2.598;2024-03-22T08:20:36;10.40;99.90
56256;DHT22;57229;51.432;-2.598;2024-03-22T08:23:04;10.40;99.90
56256;DHT22;57229;51.432;-2.598;2024-03-22T08:25:30;10.70;99.90
56256;DHT22;57229;51.432;-2.598;2024-03-22T08:27:56;10.60;99.90
56256;DHT22;57229;51.432;-2.598;2024-03-22T08:30:23;10.40;99.90
56256;DHT22;57229;51.432;-2.598;2024-03-22T08:32:48;10.30;99.90
56256;DHT22;57229;51.432;-2.598;2024-03-22T08:35:14;10.40;99.90
56256;DHT22;57229;51.432;-2.598;2024-03-22T08:37:40;10.40;99.90
56256;DHT22;57229;51.432;-2.598;2024-03-22T08:40:06;11.40;99.90
56256;DHT22;57229;51.432;-2.598;2024-03-22T08:42:32;10.50;99.90
56256;DHT22;57229;51.432;-2.598;2024-03-22T08:44:58;10.60;99.90
56256;DHT22;57229;51.432;-2.598;2024-03-22T08:47:24;10.60;99.90
56256;DHT22;57229;51.432;-2.598;2024-03-22T08:49:50;10.50;99.90
56256;DHT22;57229;51.432;-2.598;2024-03-22T08:52:15;10.60;99.90
56256;DHT22;57229;51.432;-2.598;2024-03-22T08:54:41;10.70;99.90
56256;DHT22;57229;51.432;-2.598;2024-03-22T08:57:06;10.90;99.90
56256;DHT22;57229;51.432;-2.598;2024-03-22T08:59:32;10.90;99.90
56256;DHT22;57229;51.432;-2.598;2024-03-22T09:01:58;11.00;99.90
56256;DHT22;57229;51.432;-2.598;2024-03-22T09:04:25;11.00;99.90
56256;DHT22;57229;51.432;-2.598;2024-03-22T09:06:50;11.10;99.90
56256;DHT22;57229;51.432;-2.598;2024-03-22T09:09:16;11.10;99.90
56256;DHT22;57229;51.432;-2.598;2024-03-22T09:11:42;11.20;99.90
56256;DHT22;57229;51.432;-2.598;2024-03-22T09:14:08;11.20;99.90
56256;DHT22;57229;51.432;-2.598;2024-03-22T09:16:34;11.10;99.90
56256;DHT22;57229;51.432;-2.598;2024-03-22T09:18:59;12.40;99.90
56256;DHT22;57229;51.432;-2.598;2024-03-22T09:21:25;12.00;99.90
56256;DHT22;57229;51.432;-2.598;2024-03-22T09:23:51;11.10;99.90
56256;DHT22;57229;51.432;-2.598;2024-03-22T09:26:17;11.30;99.90
56256;DHT22;57229;51.432;-2.598;2024-03-22T09:28:44;11.20;99.90
56256;DHT22;57229;51.432;-2.598;2024-03-22T09:31:11;11.40;99.90
56256;DHT22;57229;51.432;-2.598;2024-03-22T09:33:36;11.30;99.90
56256;DHT22;57229;51.432;-2.598;2024-03-22T09:36:02;11.30;99.90
56256;DHT22;57229;51.432;-2.598;2024-03-22T09:38:28;11.30;99.90
56256;DHT22;57229;51.432;-2.598;2024-03-22T09:40:54;12.20;99.90
56256;DHT22;57229;51.432;-2.598;2024-03-22T09:43:21;11.50;99.90
56256;DHT22;57229;51.432;-2.598;2024-03-22T09:45:48;11.60;99.90
56256;DHT22;57229;51.432;-2.598;2024-03-22T09:48:16;11.70;99.90
56256;DHT22;57229;51.432;-2.598;2024-03-22T09:50:43;11.80;99.90
56256;DHT22;57229;51.432;-2.598;2024-03-22T09:53:10;12.00;99.90
56256;DHT22;57229;51.432;-2.598;2024-03-22T09:55:36;12.10;99.90
56256;DHT22;57229;51.432;-2.598;2024-03-22T09:58:02;12.10;99.90
56256;DHT22;57229;51.432;-2.598;2024-03-22T10:00:28;12.20;99.90
56256;DHT22;57229;51.432;-2.598;2024-03-22T10:02:53;13.00;99.90
56256;DHT22;57229;51.432;-2.598;2024-03-22T10:05:19;12.20;99.90
56256;DHT22;57229;51.432;-2.598;2024-03-22T10:07:45;12.20;99.90
56256;DHT22;57229;51.432;-2.598;2024-03-22T10:10:11;12.20;99.90
56256;DHT22;57229;51.432;-2.598;2024-03-22T10:12:37;12.40;99.90
56256;DHT22;57229;51.432;-2.598;2024-03-22T10:15:05;12.30;99.90
56256;DHT22;57229;51.432;-2.598;2024-03-22T10:17:34;12.30;99.90
56256;DHT22;57229;51.432;-2.598;2024-03-22T10:19:59;12.20;99.90
56256;DHT22;57229;51.432;-2.598;2024-03-22T10:22:25;12.20;99.90
56256;DHT22;57229;51.432;-2.598;2024-03-22T10:24:51;12.20;99.90
56256;DHT22;57229;51.432;-2.598;2024-03-22T10:27:17;12.10;99.90
56256;DHT22;57229;51.432;-2.598;2024-03-22T10:29:44;12.10;99.90
56256;DHT22;57229;51.432;-2.598;2024-03-22T10:32:10;12.60;99.90
56256;DHT22;57229;51.432;-2.598;2024-03-22T10:34:35;12.00;99.90
56256;DHT22;57229;51.432;-2.598;2024-03-22T10:37:01;11.90;99.90
56256;DHT22;57229;51.432;-2.598;2024-03-22T10:39:28;11.90;99.90
56256;DHT22;57229;51.432;-2.598;2024-03-22T10:41:54;12.00;99.90
56256;DHT22;57229;51.432;-2.598;2024-03-22T10:44:19;12.00;99.90
56256;DHT22;57229;51.432;-2.598;2024-03-22T10:46:46;12.00;99.90
56256;DHT22;57229;51.432;-2.598;2024-03-22T10:49:21;12.10;99.90
56256;DHT22;57229;51.432;-2.598;2024-03-22T10:52:07;12.10;99.90
56256;DHT22;57229;51.432;-2.598;2024-03-22T10:54:38;12.20;99.90
56256;DHT22;57229;51.432;-2.598;2024-03-22T10:57:05;12.10;99.90
56256;DHT22;57229;51.432;-2.598;2024-03-22T10:59:35;12.30;99.90
56256;DHT22;57229;51.432;-2.598;2024-03-22T11:02:04;12.60;99.90
56256;DHT22;57229;51.432;-2.598;2024-03-22T11:04:32;12.50;99.90
56256;DHT22;57229;51.432;-2.598;2024-03-22T11:06:58;12.80;99.90
56256;DHT22;57229;51.432;-2.598;2024-03-22T11:09:25;12.70;99.90
56256;DHT22;57229;51.432;-2.598;2024-03-22T11:11:55;13.00;99.90
56256;DHT22;57229;51.432;-2.598;2024-03-22T11:14:25;13.00;99.90
56256;DHT22;57229;51.432;-2.598;2024-03-22T11:16:51;13.00;99.90
56256;DHT22;57229;51.432;-2.598;2024-03-22T11:19:16;13.00;99.90
56256;DHT22;57229;51.432;-2.598;2024-03-22T11:21:42;13.70;99.90
56256;DHT22;57229;51.432;-2.598;2024-03-22T11:24:08;12.80;99.90
56256;DHT22;57229;51.432;-2.598;2024-03-22T11:26:34;13.60;99.90
56256;DHT22;57229;51.432;-2.598;2024-03-22T11:28:59;13.10;99.90
56256;DHT22;57229;51.432;-2.598;2024-03-22T11:31:25;13.20;99.90
56256;DHT22;57229;51.432;-2.598;2024-03-22T11:33:56;12.90;99.90
56256;DHT22;57229;51.432;-2.598;2024-03-22T11:36:22;12.60;99.90
56256;DHT22;57229;51.432;-2.598;2024-03-22T11:38:49;12.50;99.90
56256;DHT22;57229;51.432;-2.598;2024-03-22T11:41:28;12.70;99.90
56256;DHT22;57229;51.432;-2.598;2024-03-22T11:43:55;12.80;99.90
56256;DHT22;57229;51.432;-2.598;2024-03-22T11:46:22;12.70;99.90
56256;DHT22;57229;51.432;-2.598;2024-03-22T11:48:53;12.90;99.90
56256;DHT22;57229;51.432;-2.598;2024-03-22T11:51:19;12.90;99.90
56256;DHT22;57229;51.432;-2.598;2024-03-22T11:53:51;13.10;99.90
56256;DHT22;57229;51.432;-2.598;2024-03-22T11:56:19;13.20;99.90
56256;DHT22;57229;51.432;-2.598;2024-03-22T11:58:46;13.00;99.90
56256;DHT22;57229;51.432;-2.598;2024-03-22T12:01:14;12.80;99.90
56256;DHT22;57229;51.432;-2.598;2024-03-22T12:03:39;12.70;99.90
56256;DHT22;57229;51.432;-2.598;2024-03-22T12:06:06;12.60;99.90
56256;DHT22;57229;51.432;-2.598;2024-03-22T12:08:31;12.60;99.90
56256;DHT22;57229;51.432;-2.598;2024-03-22T12:10:57;12.40;99.90
56256;DHT22;57229;51.432;-2.598;2024-03-22T12:13:22;13.50;99.90
56256;DHT22;57229;51.432;-2.598;2024-03-22T12:15:48;12.50;99.90
56256;DHT22;57229;51.432;-2.598;2024-03-22T12:18:14;13.80;99.90
56256;DHT22;57229;51.432;-2.598;2024-03-22T12:20:39;13.40;99.90
56256;DHT22;57229;51.432;-2.598;2024-03-22T12:23:05;14.20;99.90
56256;DHT22;57229;51.432;-2.598;2024-03-22T12:25:31;14.90;99.90
56256;DHT22;57229;51.432;-2.598;2024-03-22T12:27:56;15.50;99.80
56256;DHT22;57229;51.432;-2.598;2024-03-22T12:30:22;16.20;98.90
56256;DHT22;57229;51.432;-2.598;2024-03-22T12:32:47;17.70;96.60
56256;DHT22;57229;51.432;-2.598;2024-03-22T12:35:13;18.20;94.70
56256;DHT22;57229;51.432;-2.598;2024-03-22T12:37:38;18.70;95.70
56256;DHT22;57229;51.432;-2.598;2024-03-22T12:40:05;19.40;93.70
56256;DHT22;57229;51.432;-2.598;2024-03-22T12:42:33;19.80;91.20
56256;DHT22;57229;51.432;-2.598;2024-03-22T12:44:59;19.60;90.60
56256;DHT22;57229;51.432;-2.598;2024-03-22T12:47:24;19.50;90.80
56256;DHT22;57229;51.432;-2.598;2024-03-22T12:49:50;19.80;91.20
56256;DHT22;57229;51.432;-2.598;2024-03-22T12:52:16;20.70;90.20
56256;DHT22;57229;51.432;-2.598;2024-03-22T12:54:42;21.00;84.90
56256;DHT22;57229;51.432;-2.598;2024-03-22T12:57:07;20.50;84.50
56256;DHT22;57229;51.432;-2.598;2024-03-22T12:59:33;19.90;81.30
56256;DHT22;57229;51.432;-2.598;2024-03-22T13:01:59;19.30;86.20
56256;DHT22;57229;51.432;-2.598;2024-03-22T13:04:27;19.10;85.20
56256;DHT22;57229;51.432;-2.598;2024-03-22T13:06:52;18.00;87.10
56256;DHT22;57229;51.432;-2.598;2024-03-22T13:09:18;17.40;87.90
56256;DHT22;57229;51.432;-2.598;2024-03-22T13:11:47;16.50;89.20
56256;DHT22;57229;51.432;-2.598;2024-03-22T13:14:14;15.60;91.20
56256;DHT22;57229;51.432;-2.598;2024-03-22T13:16:41;15.30;93.40
56256;DHT22;57229;51.432;-2.598;2024-03-22T13:19:07;15.20;93.70
56256;DHT22;57229;51.432;-2.598;2024-03-22T13:21:38;15.10;93.10
56256;DHT22;57229;51.432;-2.598;2024-03-22T13:24:03;14.90;92.70
56256;DHT22;57229;51.432;-2.598;2024-03-22T13:26:29;15.20;92.60
56256;DHT22;57229;51.432;-2.598;2024-03-22T13:28:54;15.30;92.70
56256;DHT22;57229;51.432;-2.598;2024-03-22T13:31:20;15.90;92.50
56256;DHT22;57229;51.432;-2.598;2024-03-22T13:33:46;15.70;92.50
56256;DHT22;57229;51.432;-2.598;2024-03-22T13:36:12;15.70;92.90
56256;DHT22;57229;51.432;-2.598;2024-03-22T13:38:38;15.80;92.00
56256;DHT22;57229;51.432;-2.598;2024-03-22T13:41:03;16.50;91.10
56256;DHT22;57229;51.432;-2.598;2024-03-22T13:43:31;18.20;90.80
56256;DHT22;57229;51.432;-2.598;2024-03-22T13:45:57;20.50;82.60
56256;DHT22;57229;51.432;-2.598;2024-03-22T13:48:24;21.60;79.90
56256;DHT22;57229;51.432;-2.598;2024-03-22T13:53:16;21.60;77.40
56256;DHT22;57229;51.432;-2.598;2024-03-22T13:55:42;22.00;78.20
56256;DHT22;57229;51.432;-2.598;2024-03-22T13:58:08;23.70;78.80
56256;DHT22;57229;51.432;-2.598;2024-03-22T14:00:34;24.90;75.60
56256;DHT22;57229;51.432;-2.598;2024-03-22T14:03:01;25.90;70.80
56256;DHT22;57229;51.432;-2.598;2024-03-22T14:05:26;26.20;70.40
56256;DHT22;57229;51.432;-2.598;2024-03-22T14:07:52;26.40;68.00
56256;DHT22;57229;51.432;-2.598;2024-03-22T14:10:17;26.40;68.20
56256;DHT22;57229;51.432;-2.598;2024-03-22T14:12:45;26.40;65.80
56256;DHT22;57229;51.432;-2.598;2024-03-22T14:15:12;26.30;66.40
56256;DHT22;57229;51.432;-2.598;2024-03-22T14:17:38;25.60;64.20
56256;DHT22;57229;51.432;-2.598;2024-03-22T14:20:04;23.90;66.60
56256;DHT22;57229;51.432;-2.598;2024-03-22T14:22:40;22.10;68.70
56256;DHT22;57229;51.432;-2.598;2024-03-22T14:25:07;20.80;71.70
56256;DHT22;57229;51.432;-2.598;2024-03-22T14:27:36;19.50;74.80
56256;DHT22;57229;51.432;-2.598;2024-03-22T14:30:03;18.80;76.30
56256;DHT22;57229;51.432;-2.598;2024-03-22T14:32:32;18.40;76.80
56256;DHT22;57229;51.432;-2.598;2024-03-22T14:34:57;19.00;77.10
56256;DHT22;57229;51.432;-2.598;2024-03-22T14:37:23;19.80;75.50
56256;DHT22;57229;51.432;-2.598;2024-03-22T14:39:48;20.00;75.70
56256;DHT22;57229;51.432;-2.598;2024-03-22T14:42:14;20.10;74.80
56256;DHT22;57229;51.432;-2.598;2024-03-22T14:44:40;20.30;75.10
56256;DHT22;57229;51.432;-2.598;2024-03-22T14:47:05;19.70;74.00
56256;DHT22;57229;51.432;-2.598;2024-03-22T14:49:31;19.00;77.10
56256;DHT22;57229;51.432;-2.598;2024-03-22T14:51:57;19.60;76.90
56256;DHT22;57229;51.432;-2.598;2024-03-22T14:54:23;20.80;76.00
56256;DHT22;57229;51.432;-2.598;2024-03-22T14:56:48;22.20;72.80
56256;DHT22;57229;51.432;-2.598;2024-03-22T14:59:14;22.60;70.60
56256;DHT22;57229;51.432;-2.598;2024-03-22T15:01:39;23.10;70.00
56256;DHT22;57229;51.432;-2.598;2024-03-22T15:04:05;23.20;68.50
56256;DHT22;57229;51.432;-2.598;2024-03-22T15:06:32;23.80;69.20
56256;DHT22;57229;51.432;-2.598;2024-03-22T15:08:58;24.40;67.10
56256;DHT22;57229;51.432;-2.598;2024-03-22T15:11:25;25.20;66.00
56256;DHT22;57229;51.432;-2.598;2024-03-22T15:13:50;25.50;66.50